sensor_id;sensor_type;location;lat;lon;timestamp;P1;durP1;ratioP1;P2;durP2;ratioP2
34072;SDS011;20346;52.702;16.886;2024-01-06T00:02:48;26.10;;;16.70;;
34072;SDS011;20346;52.702;16.886;2024-01-06T00:05:34;26.20;;;15.30;;
34072;SDS011;20346;52.702;16.886;2024-01-06T00:08:20;25.70;;;17.20;;
34072;SDS011;20346;52.702;16.886;2024-01-06T00:11:06;25.20;;;16.20;;
34072;SDS011;20346;52.702;16.886;2024-01-06T00:13:52;27.40;;;17.20;;
34072;SDS011;20346;52.702;16.886;2024-01-06T00:16:38;25.40;;;15.90;;
34072;SDS011;20346;52.702;16.886;2024-01-06T00:19:24;27.00;;;16.80;;
34072;SDS011;20346;52.702;16.886;2024-01-06T00:22:10;28.00;;;17.60;;
34072;SDS011;20346;52.702;16.886;2024-01-06T00:30:28;30.20;;;16.90;;
34072;SDS011;20346;52.702;16.886;2024-01-06T00:33:14;28.80;;;16.20;;
34072;SDS011;20346;52.702;16.886;2024-01-06T00:36:00;32.20;;;18.90;;
34072;SDS011;20346;52.702;16.886;2024-01-06T00:38:46;29.90;;;19.50;;
34072;SDS011;20346;52.702;16.886;2024-01-06T00:41:32;33.90;;;18.80;;
34072;SDS011;20346;52.702;16.886;2024-01-06T00:44:18;28.10;;;18.00;;
34072;SDS011;20346;52.702;16.886;2024-01-06T00:47:04;32.70;;;19.10;;
34072;SDS011;20346;52.702;16.886;2024-01-06T00:49:50;30.90;;;18.50;;
34072;SDS011;20346;52.702;16.886;2024-01-06T00:52:36;29.10;;;18.60;;
34072;SDS011;20346;52.702;16.886;2024-01-06T00:55:22;29.90;;;17.70;;
34072;SDS011;20346;52.702;16.886;2024-01-06T00:58:09;35.70;;;18.50;;
34072;SDS011;20346;52.702;16.886;2024-01-06T01:00:55;33.30;;;19.80;;
34072;SDS011;20346;52.702;16.886;2024-01-06T01:03:41;31.00;;;18.00;;
34072;SDS011;20346;52.702;16.886;2024-01-06T01:06:27;33.60;;;18.50;;
34072;SDS011;20346;52.702;16.886;2024-01-06T01:09:13;35.90;;;19.60;;
34072;SDS011;20346;52.702;16.886;2024-01-06T01:11:59;28.60;;;17.40;;
34072;SDS011;20346;52.702;16.886;2024-01-06T01:14:45;26.40;;;16.50;;
34072;SDS011;20346;52.702;16.886;2024-01-06T01:17:31;28.20;;;17.30;;
34072;SDS011;20346;52.702;16.886;2024-01-06T01:20:17;29.50;;;17.50;;
34072;SDS011;20346;52.702;16.886;2024-01-06T01:23:04;31.30;;;18.80;;
34072;SDS011;20346;52.702;16.886;2024-01-06T01:25:50;25.80;;;17.90;;
34072;SDS011;20346;52.702;16.886;2024-01-06T01:28:36;27.00;;;18.10;;
34072;SDS011;20346;52.702;16.886;2024-01-06T01:31:22;26.20;;;17.00;;
34072;SDS011;20346;52.702;16.886;2024-01-06T01:34:07;30.40;;;18.40;;
34072;SDS011;20346;52.702;16.886;2024-01-06T01:42:25;25.90;;;17.10;;
34072;SDS011;20346;52.702;16.886;2024-01-06T01:45:11;27.70;;;17.30;;
34072;SDS011;20346;52.702;16.886;2024-01-06T01:47:57;24.90;;;17.90;;
34072;SDS011;20346;52.702;16.886;2024-01-06T01:54:18;27.20;;;16.90;;
34072;SDS011;20346;52.702;16.886;2024-01-06T01:57:04;31.70;;;19.40;;
34072;SDS011;20346;52.702;16.886;2024-01-06T01:59:52;24.60;;;15.90;;
34072;SDS011;20346;52.702;16.886;2024-01-06T02:02:38;31.30;;;18.00;;
34072;SDS011;20346;52.702;16.886;2024-01-06T02:05:24;28.90;;;18.10;;
34072;SDS011;20346;52.702;16.886;2024-01-06T02:08:10;27.00;;;16.40;;
34072;SDS011;20346;52.702;16.886;2024-01-06T02:10:57;26.80;;;16.40;;
34072;SDS011;20346;52.702;16.886;2024-01-06T02:13:43;25.60;;;16.80;;
34072;SDS011;20346;52.702;16.886;2024-01-06T02:16:29;28.10;;;18.00;;
34072;SDS011;20346;52.702;16.886;2024-01-06T02:19:15;32.70;;;18.60;;
34072;SDS011;20346;52.702;16.886;2024-01-06T02:22:02;22.10;;;15.90;;
34072;SDS011;20346;52.702;16.886;2024-01-06T02:30:20;23.40;;;15.40;;
34072;SDS011;20346;52.702;16.886;2024-01-06T02:33:06;24.90;;;16.60;;
34072;SDS011;20346;52.702;16.886;2024-01-06T02:35:52;22.60;;;15.50;;
34072;SDS011;20346;52.702;16.886;2024-01-06T02:38:38;26.90;;;16.10;;
34072;SDS011;20346;52.702;16.886;2024-01-06T02:41:24;28.90;;;16.80;;
34072;SDS011;20346;52.702;16.886;2024-01-06T02:44:10;26.00;;;15.90;;
34072;SDS011;20346;52.702;16.886;2024-01-06T02:46:56;28.70;;;16.00;;
34072;SDS011;20346;52.702;16.886;2024-01-06T02:49:42;25.50;;;16.30;;
34072;SDS011;20346;52.702;16.886;2024-01-06T02:55:14;29.70;;;18.60;;
34072;SDS011;20346;52.702;16.886;2024-01-06T02:58:01;28.70;;;17.80;;
34072;SDS011;20346;52.702;16.886;2024-01-06T03:00:47;24.20;;;15.90;;
34072;SDS011;20346;52.702;16.886;2024-01-06T03:03:33;25.10;;;17.70;;
34072;SDS011;20346;52.702;16.886;2024-01-06T03:06:19;25.60;;;16.80;;
34072;SDS011;20346;52.702;16.886;2024-01-06T03:09:05;27.10;;;16.90;;
34072;SDS011;20346;52.702;16.886;2024-01-06T03:11:51;27.00;;;17.40;;
34072;SDS011;20346;52.702;16.886;2024-01-06T03:14:37;26.00;;;17.70;;
34072;SDS011;20346;52.702;16.886;2024-01-06T03:17:23;26.00;;;17.30;;
34072;SDS011;20346;52.702;16.886;2024-01-06T03:20:09;28.10;;;16.70;;
34072;SDS011;20346;52.702;16.886;2024-01-06T03:22:55;32.90;;;18.20;;
34072;SDS011;20346;52.702;16.886;2024-01-06T03:25:41;28.00;;;17.60;;
34072;SDS011;20346;52.702;16.886;2024-01-06T03:28:27;23.70;;;16.50;;
34072;SDS011;20346;52.702;16.886;2024-01-06T03:31:13;30.10;;;18.60;;
34072;SDS011;20346;52.702;16.886;2024-01-06T03:33:59;25.30;;;16.40;;
34072;SDS011;20346;52.702;16.886;2024-01-06T03:39:31;27.40;;;17.80;;
34072;SDS011;20346;52.702;16.886;2024-01-06T03:42:17;24.60;;;17.30;;
34072;SDS011;20346;52.702;16.886;2024-01-06T03:45:03;25.80;;;17.10;;
34072;SDS011;20346;52.702;16.886;2024-01-06T03:47:49;29.40;;;17.40;;
34072;SDS011;20346;52.702;16.886;2024-01-06T03:50:35;23.80;;;16.80;;
34072;SDS011;20346;52.702;16.886;2024-01-06T03:53:21;27.50;;;17.90;;
34072;SDS011;20346;52.702;16.886;2024-01-06T03:56:07;31.70;;;17.60;;
34072;SDS011;20346;52.702;16.886;2024-01-06T04:01:39;29.70;;;17.30;;
34072;SDS011;20346;52.702;16.886;2024-01-06T04:04:25;27.90;;;16.90;;
34072;SDS011;20346;52.702;16.886;2024-01-06T04:07:11;29.20;;;17.70;;
34072;SDS011;20346;52.702;16.886;2024-01-06T04:13:12;30.30;;;19.40;;
34072;SDS011;20346;52.702;16.886;2024-01-06T04:15:58;27.80;;;18.30;;
34072;SDS011;20346;52.702;16.886;2024-01-06T04:18:44;26.10;;;17.50;;
34072;SDS011;20346;52.702;16.886;2024-01-06T04:21:30;26.70;;;17.90;;
34072;SDS011;20346;52.702;16.886;2024-01-06T04:24:16;27.50;;;17.10;;
34072;SDS011;20346;52.702;16.886;2024-01-06T04:27:03;29.00;;;17.40;;
34072;SDS011;20346;52.702;16.886;2024-01-06T04:29:50;28.20;;;17.60;;
34072;SDS011;20346;52.702;16.886;2024-01-06T04:32:38;25.30;;;17.60;;
34072;SDS011;20346;52.702;16.886;2024-01-06T04:35:25;29.10;;;19.00;;
34072;SDS011;20346;52.702;16.886;2024-01-06T04:38:11;29.30;;;17.90;;
34072;SDS011;20346;52.702;16.886;2024-01-06T04:40:57;25.30;;;17.30;;
34072;SDS011;20346;52.702;16.886;2024-01-06T04:43:43;28.90;;;18.80;;
34072;SDS011;20346;52.702;16.886;2024-01-06T04:46:29;28.80;;;19.70;;
34072;SDS011;20346;52.702;16.886;2024-01-06T04:49:16;27.20;;;18.70;;
34072;SDS011;20346;52.702;16.886;2024-01-06T04:52:02;29.00;;;18.70;;
34072;SDS011;20346;52.702;16.886;2024-01-06T04:57:34;27.80;;;18.50;;
34072;SDS011;20346;52.702;16.886;2024-01-06T05:00:20;26.60;;;17.70;;
34072;SDS011;20346;52.702;16.886;2024-01-06T05:03:06;29.10;;;18.10;;
34072;SDS011;20346;52.702;16.886;2024-01-06T05:05:52;31.60;;;18.70;;
34072;SDS011;20346;52.702;16.886;2024-01-06T05:08:38;30.30;;;17.90;;
34072;SDS011;20346;52.702;16.886;2024-01-06T05:11:30;27.70;;;17.80;;
34072;SDS011;20346;52.702;16.886;2024-01-06T05:17:02;28.10;;;18.10;;
34072;SDS011;20346;52.702;16.886;2024-01-06T05:19:49;29.40;;;18.10;;
34072;SDS011;20346;52.702;16.886;2024-01-06T05:22:35;29.60;;;19.00;;
34072;SDS011;20346;52.702;16.886;2024-01-06T05:25:22;24.50;;;17.20;;
34072;SDS011;20346;52.702;16.886;2024-01-06T05:28:08;28.20;;;17.80;;
34072;SDS011;20346;52.702;16.886;2024-01-06T05:30:54;31.40;;;18.40;;
34072;SDS011;20346;52.702;16.886;2024-01-06T05:36:27;30.00;;;18.10;;
34072;SDS011;20346;52.702;16.886;2024-01-06T05:39:13;30.10;;;19.60;;
34072;SDS011;20346;52.702;16.886;2024-01-06T05:41:59;29.80;;;18.90;;
34072;SDS011;20346;52.702;16.886;2024-01-06T05:44:45;33.70;;;20.00;;
34072;SDS011;20346;52.702;16.886;2024-01-06T05:47:32;29.70;;;17.60;;
34072;SDS011;20346;52.702;16.886;2024-01-06T05:50:18;33.80;;;19.00;;
34072;SDS011;20346;52.702;16.886;2024-01-06T05:53:04;32.20;;;19.90;;
34072;SDS011;20346;52.702;16.886;2024-01-06T05:55:51;29.60;;;18.20;;
34072;SDS011;20346;52.702;16.886;2024-01-06T05:58:42;29.20;;;18.30;;
34072;SDS011;20346;52.702;16.886;2024-01-06T06:01:28;27.80;;;18.30;;
34072;SDS011;20346;52.702;16.886;2024-01-06T06:07:00;29.80;;;16.80;;
34072;SDS011;20346;52.702;16.886;2024-01-06T06:09:48;25.70;;;16.70;;
34072;SDS011;20346;52.702;16.886;2024-01-06T06:12:34;26.80;;;17.40;;
34072;SDS011;20346;52.702;16.886;2024-01-06T06:15:21;27.90;;;17.20;;
34072;SDS011;20346;52.702;16.886;2024-01-06T06:20:53;29.70;;;17.00;;
34072;SDS011;20346;52.702;16.886;2024-01-06T06:23:39;26.00;;;15.70;;
34072;SDS011;20346;52.702;16.886;2024-01-06T06:26:27;26.90;;;14.80;;
34072;SDS011;20346;52.702;16.886;2024-01-06T06:29:14;23.00;;;15.60;;
34072;SDS011;20346;52.702;16.886;2024-01-06T06:32:00;35.50;;;16.20;;
34072;SDS011;20346;52.702;16.886;2024-01-06T06:34:46;28.70;;;15.90;;
34072;SDS011;20346;52.702;16.886;2024-01-06T06:40:18;26.00;;;14.00;;
34072;SDS011;20346;52.702;16.886;2024-01-06T06:43:04;24.00;;;13.80;;
34072;SDS011;20346;52.702;16.886;2024-01-06T06:45:50;22.70;;;14.50;;
34072;SDS011;20346;52.702;16.886;2024-01-06T06:48:36;23.10;;;15.50;;
34072;SDS011;20346;52.702;16.886;2024-01-06T06:51:22;20.20;;;13.80;;
34072;SDS011;20346;52.702;16.886;2024-01-06T06:54:12;24.30;;;15.50;;
34072;SDS011;20346;52.702;16.886;2024-01-06T06:57:00;25.60;;;16.00;;
34072;SDS011;20346;52.702;16.886;2024-01-06T06:59:47;20.70;;;14.10;;
34072;SDS011;20346;52.702;16.886;2024-01-06T07:02:33;27.00;;;15.70;;
34072;SDS011;20346;52.702;16.886;2024-01-06T07:05:20;24.90;;;14.90;;
34072;SDS011;20346;52.702;16.886;2024-01-06T07:08:06;24.70;;;14.90;;
34072;SDS011;20346;52.702;16.886;2024-01-06T07:10:52;21.70;;;14.10;;
34072;SDS011;20346;52.702;16.886;2024-01-06T07:13:38;25.20;;;14.80;;
34072;SDS011;20346;52.702;16.886;2024-01-06T07:16:24;21.90;;;14.30;;
34072;SDS011;20346;52.702;16.886;2024-01-06T07:19:10;22.20;;;14.00;;
34072;SDS011;20346;52.702;16.886;2024-01-06T07:21:57;22.70;;;13.90;;
34072;SDS011;20346;52.702;16.886;2024-01-06T07:24:43;18.80;;;13.40;;
34072;SDS011;20346;52.702;16.886;2024-01-06T07:27:29;22.00;;;14.60;;
34072;SDS011;20346;52.702;16.886;2024-01-06T07:30:16;25.00;;;14.60;;
34072;SDS011;20346;52.702;16.886;2024-01-06T07:35:48;23.10;;;14.10;;
34072;SDS011;20346;52.702;16.886;2024-01-06T07:38:35;25.60;;;14.20;;
34072;SDS011;20346;52.702;16.886;2024-01-06T07:41:22;25.50;;;14.60;;
34072;SDS011;20346;52.702;16.886;2024-01-06T07:44:08;25.50;;;14.30;;
34072;SDS011;20346;52.702;16.886;2024-01-06T07:46:54;18.20;;;12.50;;
34072;SDS011;20346;52.702;16.886;2024-01-06T07:49:40;21.70;;;14.30;;
34072;SDS011;20346;52.702;16.886;2024-01-06T07:52:26;20.50;;;13.40;;
34072;SDS011;20346;52.702;16.886;2024-01-06T07:55:12;21.80;;;13.80;;
34072;SDS011;20346;52.702;16.886;2024-01-06T08:00:44;19.30;;;13.50;;
34072;SDS011;20346;52.702;16.886;2024-01-06T08:03:30;21.90;;;13.20;;
34072;SDS011;20346;52.702;16.886;2024-01-06T08:06:16;18.70;;;13.40;;
34072;SDS011;20346;52.702;16.886;2024-01-06T08:09:02;18.40;;;12.80;;
34072;SDS011;20346;52.702;16.886;2024-01-06T08:11:49;18.90;;;13.10;;
34072;SDS011;20346;52.702;16.886;2024-01-06T08:14:35;16.40;;;11.50;;
34072;SDS011;20346;52.702;16.886;2024-01-06T08:17:21;18.30;;;13.40;;
34072;SDS011;20346;52.702;16.886;2024-01-06T08:20:07;19.40;;;13.40;;
34072;SDS011;20346;52.702;16.886;2024-01-06T08:22:54;20.80;;;13.40;;
34072;SDS011;20346;52.702;16.886;2024-01-06T08:28:26;18.30;;;12.00;;
34072;SDS011;20346;52.702;16.886;2024-01-06T08:31:12;18.80;;;12.10;;
34072;SDS011;20346;52.702;16.886;2024-01-06T08:33:58;19.30;;;11.90;;
34072;SDS011;20346;52.702;16.886;2024-01-06T08:36:44;17.10;;;12.20;;
34072;SDS011;20346;52.702;16.886;2024-01-06T08:42:16;13.70;;;10.30;;
34072;SDS011;20346;52.702;16.886;2024-01-06T08:45:02;16.20;;;10.30;;
34072;SDS011;20346;52.702;16.886;2024-01-06T08:47:49;16.60;;;11.00;;
34072;SDS011;20346;52.702;16.886;2024-01-06T08:50:35;15.80;;;10.80;;
34072;SDS011;20346;52.702;16.886;2024-01-06T08:53:21;18.20;;;12.00;;
34072;SDS011;20346;52.702;16.886;2024-01-06T08:56:08;19.80;;;11.80;;
34072;SDS011;20346;52.702;16.886;2024-01-06T08:58:54;15.90;;;11.10;;
34072;SDS011;20346;52.702;16.886;2024-01-06T09:01:40;17.20;;;11.10;;
34072;SDS011;20346;52.702;16.886;2024-01-06T09:04:26;13.20;;;10.00;;
34072;SDS011;20346;52.702;16.886;2024-01-06T09:07:12;16.40;;;10.60;;
34072;SDS011;20346;52.702;16.886;2024-01-06T09:12:45;22.50;;;11.10;;
34072;SDS011;20346;52.702;16.886;2024-01-06T09:15:31;18.80;;;12.00;;
34072;SDS011;20346;52.702;16.886;2024-01-06T09:18:18;19.60;;;10.80;;
34072;SDS011;20346;52.702;16.886;2024-01-06T09:21:04;16.50;;;9.80;;
34072;SDS011;20346;52.702;16.886;2024-01-06T09:23:51;16.00;;;9.50;;
34072;SDS011;20346;52.702;16.886;2024-01-06T09:29:23;11.10;;;8.00;;
34072;SDS011;20346;52.702;16.886;2024-01-06T09:34:56;13.00;;;8.50;;
34072;SDS011;20346;52.702;16.886;2024-01-06T09:40:28;10.70;;;7.10;;
34072;SDS011;20346;52.702;16.886;2024-01-06T09:43:17;10.20;;;7.70;;
34072;SDS011;20346;52.702;16.886;2024-01-06T09:49:08;14.00;;;8.70;;
34072;SDS011;20346;52.702;16.886;2024-01-06T09:51:56;10.40;;;7.60;;
34072;SDS011;20346;52.702;16.886;2024-01-06T09:54:46;9.90;;;7.60;;
34072;SDS011;20346;52.702;16.886;2024-01-06T09:57:37;12.30;;;7.50;;
34072;SDS011;20346;52.702;16.886;2024-01-06T10:00:24;12.60;;;6.80;;
34072;SDS011;20346;52.702;16.886;2024-01-06T10:03:10;8.60;;;6.80;;
34072;SDS011;20346;52.702;16.886;2024-01-06T10:08:50;7.50;;;6.00;;
34072;SDS011;20346;52.702;16.886;2024-01-06T10:11:37;8.30;;;5.50;;
34072;SDS011;20346;52.702;16.886;2024-01-06T10:14:23;7.30;;;5.90;;
34072;SDS011;20346;52.702;16.886;2024-01-06T10:17:10;9.60;;;6.10;;
34072;SDS011;20346;52.702;16.886;2024-01-06T10:19:57;9.30;;;5.40;;
34072;SDS011;20346;52.702;16.886;2024-01-06T10:22:43;7.90;;;5.10;;
34072;SDS011;20346;52.702;16.886;2024-01-06T10:25:30;7.60;;;5.30;;
34072;SDS011;20346;52.702;16.886;2024-01-06T10:33:48;6.50;;;5.00;;
34072;SDS011;20346;52.702;16.886;2024-01-06T10:39:21;6.10;;;3.90;;
34072;SDS011;20346;52.702;16.886;2024-01-06T10:42:07;7.60;;;4.40;;
34072;SDS011;20346;52.702;16.886;2024-01-06T10:44:55;4.70;;;4.20;;
34072;SDS011;20346;52.702;16.886;2024-01-06T10:47:42;5.30;;;4.70;;
34072;SDS011;20346;52.702;16.886;2024-01-06T10:50:29;7.80;;;4.10;;
34072;SDS011;20346;52.702;16.886;2024-01-06T10:53:15;6.60;;;4.30;;
34072;SDS011;20346;52.702;16.886;2024-01-06T10:56:03;7.10;;;5.20;;
34072;SDS011;20346;52.702;16.886;2024-01-06T10:58:50;8.10;;;4.30;;
34072;SDS011;20346;52.702;16.886;2024-01-06T11:01:37;5.80;;;4.20;;
34072;SDS011;20346;52.702;16.886;2024-01-06T11:04:26;5.20;;;3.90;;
34072;SDS011;20346;52.702;16.886;2024-01-06T11:07:15;8.20;;;4.90;;
34072;SDS011;20346;52.702;16.886;2024-01-06T11:10:04;7.10;;;4.80;;
34072;SDS011;20346;52.702;16.886;2024-01-06T11:13:08;5.90;;;4.40;;
34072;SDS011;20346;52.702;16.886;2024-01-06T11:15:57;7.10;;;4.60;;
34072;SDS011;20346;52.702;16.886;2024-01-06T11:21:34;5.90;;;4.30;;
34072;SDS011;20346;52.702;16.886;2024-01-06T11:24:20;8.40;;;4.70;;
34072;SDS011;20346;52.702;16.886;2024-01-06T11:27:16;5.80;;;4.40;;
34072;SDS011;20346;52.702;16.886;2024-01-06T11:30:03;8.20;;;4.80;;
34072;SDS011;20346;52.702;16.886;2024-01-06T11:32:53;6.00;;;4.20;;
34072;SDS011;20346;52.702;16.886;2024-01-06T11:35:44;6.60;;;4.70;;
34072;SDS011;20346;52.702;16.886;2024-01-06T11:38:38;8.20;;;4.80;;
34072;SDS011;20346;52.702;16.886;2024-01-06T11:42:08;4.90;;;3.30;;
34072;SDS011;20346;52.702;16.886;2024-01-06T11:44:38;7.70;;;4.00;;
34072;SDS011;20346;52.702;16.886;2024-01-06T11:47:28;5.80;;;4.00;;
34072;SDS011;20346;52.702;16.886;2024-01-06T11:50:16;10.70;;;4.10;;
34072;SDS011;20346;52.702;16.886;2024-01-06T11:55:49;7.70;;;4.20;;
34072;SDS011;20346;52.702;16.886;2024-01-06T11:58:35;6.30;;;3.80;;
34072;SDS011;20346;52.702;16.886;2024-01-06T12:01:24;5.50;;;3.70;;
34072;SDS011;20346;52.702;16.886;2024-01-06T12:04:11;5.50;;;3.90;;
34072;SDS011;20346;52.702;16.886;2024-01-06T12:07:09;5.50;;;4.20;;
34072;SDS011;20346;52.702;16.886;2024-01-06T12:10:03;5.40;;;4.00;;
34072;SDS011;20346;52.702;16.886;2024-01-06T12:12:59;7.00;;;4.50;;
34072;SDS011;20346;52.702;16.886;2024-01-06T12:15:47;5.20;;;3.70;;
34072;SDS011;20346;52.702;16.886;2024-01-06T12:18:33;4.80;;;3.70;;
34072;SDS011;20346;52.702;16.886;2024-01-06T12:21:19;5.30;;;3.90;;
34072;SDS011;20346;52.702;16.886;2024-01-06T12:24:18;5.50;;;4.20;;
34072;SDS011;20346;52.702;16.886;2024-01-06T12:27:08;6.90;;;4.30;;
34072;SDS011;20346;52.702;16.886;2024-01-06T12:29:57;5.40;;;4.20;;
34072;SDS011;20346;52.702;16.886;2024-01-06T12:32:43;6.00;;;4.50;;
34072;SDS011;20346;52.702;16.886;2024-01-06T12:35:31;7.00;;;4.30;;
34072;SDS011;20346;52.702;16.886;2024-01-06T12:38:19;6.60;;;4.50;;
34072;SDS011;20346;52.702;16.886;2024-01-06T12:41:05;5.60;;;4.40;;
34072;SDS011;20346;52.702;16.886;2024-01-06T12:43:51;5.50;;;4.10;;
34072;SDS011;20346;52.702;16.886;2024-01-06T12:46:37;6.60;;;4.70;;
34072;SDS011;20346;52.702;16.886;2024-01-06T12:49:24;6.60;;;3.60;;
34072;SDS011;20346;52.702;16.886;2024-01-06T12:52:10;7.30;;;4.20;;
34072;SDS011;20346;52.702;16.886;2024-01-06T12:54:56;6.10;;;4.00;;
34072;SDS011;20346;52.702;16.886;2024-01-06T12:57:42;7.60;;;4.40;;
34072;SDS011;20346;52.702;16.886;2024-01-06T13:00:28;7.80;;;5.30;;
34072;SDS011;20346;52.702;16.886;2024-01-06T13:03:14;7.40;;;4.20;;
34072;SDS011;20346;52.702;16.886;2024-01-06T13:06:00;6.60;;;4.20;;
34072;SDS011;20346;52.702;16.886;2024-01-06T13:08:47;10.20;;;4.70;;
34072;SDS011;20346;52.702;16.886;2024-01-06T13:11:34;6.90;;;4.50;;
34072;SDS011;20346;52.702;16.886;2024-01-06T13:14:21;5.70;;;4.50;;
34072;SDS011;20346;52.702;16.886;2024-01-06T13:19:54;8.50;;;5.30;;
34072;SDS011;20346;52.702;16.886;2024-01-06T13:22:41;6.90;;;4.80;;
34072;SDS011;20346;52.702;16.886;2024-01-06T13:25:27;7.10;;;4.40;;
34072;SDS011;20346;52.702;16.886;2024-01-06T13:28:14;10.00;;;5.90;;
34072;SDS011;20346;52.702;16.886;2024-01-06T13:31:00;7.40;;;5.10;;
34072;SDS011;20346;52.702;16.886;2024-01-06T13:36:32;7.40;;;5.30;;
34072;SDS011;20346;52.702;16.886;2024-01-06T13:39:18;8.00;;;5.00;;
34072;SDS011;20346;52.702;16.886;2024-01-06T13:42:06;7.50;;;5.40;;
34072;SDS011;20346;52.702;16.886;2024-01-06T13:47:39;8.50;;;5.80;;
34072;SDS011;20346;52.702;16.886;2024-01-06T13:50:30;6.70;;;5.30;;
34072;SDS011;20346;52.702;16.886;2024-01-06T13:53:16;7.80;;;5.50;;
34072;SDS011;20346;52.702;16.886;2024-01-06T13:58:48;8.60;;;5.80;;
34072;SDS011;20346;52.702;16.886;2024-01-06T14:01:37;7.40;;;5.10;;
34072;SDS011;20346;52.702;16.886;2024-01-06T14:07:09;11.50;;;6.50;;
34072;SDS011;20346;52.702;16.886;2024-01-06T14:09:56;12.70;;;6.00;;
34072;SDS011;20346;52.702;16.886;2024-01-06T14:15:28;10.10;;;5.90;;
34072;SDS011;20346;52.702;16.886;2024-01-06T14:18:16;9.00;;;6.10;;
34072;SDS011;20346;52.702;16.886;2024-01-06T14:21:03;8.80;;;5.90;;
34072;SDS011;20346;52.702;16.886;2024-01-06T14:23:49;10.60;;;5.80;;
34072;SDS011;20346;52.702;16.886;2024-01-06T14:26:36;10.30;;;5.90;;
34072;SDS011;20346;52.702;16.886;2024-01-06T14:29:22;9.50;;;5.70;;
34072;SDS011;20346;52.702;16.886;2024-01-06T14:32:09;8.20;;;5.60;;
34072;SDS011;20346;52.702;16.886;2024-01-06T14:34:55;8.30;;;5.70;;
34072;SDS011;20346;52.702;16.886;2024-01-06T14:37:42;10.20;;;5.90;;
34072;SDS011;20346;52.702;16.886;2024-01-06T14:40:30;9.40;;;5.70;;
34072;SDS011;20346;52.702;16.886;2024-01-06T14:43:16;8.50;;;6.40;;
34072;SDS011;20346;52.702;16.886;2024-01-06T14:48:51;11.60;;;5.50;;
34072;SDS011;20346;52.702;16.886;2024-01-06T14:51:38;11.60;;;5.00;;
34072;SDS011;20346;52.702;16.886;2024-01-06T14:54:24;9.50;;;5.00;;
34072;SDS011;20346;52.702;16.886;2024-01-06T14:57:11;6.70;;;4.70;;
34072;SDS011;20346;52.702;16.886;2024-01-06T14:59:57;9.30;;;5.10;;
34072;SDS011;20346;52.702;16.886;2024-01-06T15:02:44;11.70;;;6.20;;
34072;SDS011;20346;52.702;16.886;2024-01-06T15:05:32;8.50;;;6.00;;
34072;SDS011;20346;52.702;16.886;2024-01-06T15:08:18;9.10;;;5.30;;
34072;SDS011;20346;52.702;16.886;2024-01-06T15:11:04;10.10;;;5.80;;
34072;SDS011;20346;52.702;16.886;2024-01-06T15:13:52;11.30;;;5.80;;
34072;SDS011;20346;52.702;16.886;2024-01-06T15:16:38;9.10;;;5.30;;
34072;SDS011;20346;52.702;16.886;2024-01-06T15:19:24;8.80;;;5.50;;
34072;SDS011;20346;52.702;16.886;2024-01-06T15:22:13;10.10;;;6.20;;
34072;SDS011;20346;52.702;16.886;2024-01-06T15:27:51;10.00;;;5.10;;
34072;SDS011;20346;52.702;16.886;2024-01-06T15:33:23;10.40;;;6.10;;
34072;SDS011;20346;52.702;16.886;2024-01-06T15:38:56;9.00;;;5.20;;
34072;SDS011;20346;52.702;16.886;2024-01-06T15:41:42;6.70;;;4.60;;
34072;SDS011;20346;52.702;16.886;2024-01-06T15:44:29;9.70;;;5.60;;
34072;SDS011;20346;52.702;16.886;2024-01-06T15:47:18;7.00;;;5.00;;
34072;SDS011;20346;52.702;16.886;2024-01-06T15:50:04;8.90;;;4.90;;
34072;SDS011;20346;52.702;16.886;2024-01-06T15:52:53;6.90;;;4.80;;
34072;SDS011;20346;52.702;16.886;2024-01-06T15:58:26;5.70;;;4.80;;
34072;SDS011;20346;52.702;16.886;2024-01-06T16:01:12;5.90;;;3.70;;
34072;SDS011;20346;52.702;16.886;2024-01-06T16:07:14;8.60;;;4.40;;
34072;SDS011;20346;52.702;16.886;2024-01-06T16:10:00;9.10;;;5.10;;
34072;SDS011;20346;52.702;16.886;2024-01-06T16:12:46;8.10;;;5.00;;
34072;SDS011;20346;52.702;16.886;2024-01-06T16:18:18;10.30;;;5.10;;
34072;SDS011;20346;52.702;16.886;2024-01-06T16:21:05;9.20;;;4.60;;
34072;SDS011;20346;52.702;16.886;2024-01-06T16:23:51;9.40;;;4.60;;
34072;SDS011;20346;52.702;16.886;2024-01-06T16:26:38;9.20;;;4.80;;
34072;SDS011;20346;52.702;16.886;2024-01-06T16:29:26;9.80;;;5.30;;
34072;SDS011;20346;52.702;16.886;2024-01-06T16:34:58;9.00;;;5.00;;
34072;SDS011;20346;52.702;16.886;2024-01-06T16:37:44;9.70;;;5.70;;
34072;SDS011;20346;52.702;16.886;2024-01-06T16:40:31;10.80;;;5.60;;
34072;SDS011;20346;52.702;16.886;2024-01-06T16:43:17;11.40;;;5.00;;
34072;SDS011;20346;52.702;16.886;2024-01-06T16:46:04;12.80;;;5.60;;
34072;SDS011;20346;52.702;16.886;2024-01-06T16:48:51;11.30;;;5.80;;
34072;SDS011;20346;52.702;16.886;2024-01-06T16:51:37;8.40;;;5.50;;
34072;SDS011;20346;52.702;16.886;2024-01-06T16:54:23;7.80;;;5.40;;
34072;SDS011;20346;52.702;16.886;2024-01-06T16:57:10;13.00;;;6.00;;
34072;SDS011;20346;52.702;16.886;2024-01-06T17:02:42;11.50;;;5.40;;
34072;SDS011;20346;52.702;16.886;2024-01-06T17:05:28;10.50;;;6.30;;
34072;SDS011;20346;52.702;16.886;2024-01-06T17:08:15;14.60;;;6.70;;
34072;SDS011;20346;52.702;16.886;2024-01-06T17:11:01;13.00;;;6.60;;
34072;SDS011;20346;52.702;16.886;2024-01-06T17:13:47;13.70;;;5.50;;
34072;SDS011;20346;52.702;16.886;2024-01-06T17:16:34;11.00;;;5.70;;
34072;SDS011;20346;52.702;16.886;2024-01-06T17:19:20;11.00;;;5.90;;
34072;SDS011;20346;52.702;16.886;2024-01-06T17:22:06;14.00;;;6.10;;
34072;SDS011;20346;52.702;16.886;2024-01-06T17:24:52;12.20;;;6.20;;
34072;SDS011;20346;52.702;16.886;2024-01-06T17:27:39;11.00;;;5.50;;
34072;SDS011;20346;52.702;16.886;2024-01-06T17:30:26;11.10;;;5.40;;
34072;SDS011;20346;52.702;16.886;2024-01-06T17:33:12;15.60;;;9.70;;
34072;SDS011;20346;52.702;16.886;2024-01-06T17:35:58;14.20;;;7.50;;
34072;SDS011;20346;52.702;16.886;2024-01-06T17:38:45;10.40;;;5.60;;
34072;SDS011;20346;52.702;16.886;2024-01-06T17:41:31;9.80;;;5.60;;
34072;SDS011;20346;52.702;16.886;2024-01-06T17:44:18;7.30;;;4.90;;
34072;SDS011;20346;52.702;16.886;2024-01-06T17:47:04;11.30;;;5.30;;
34072;SDS011;20346;52.702;16.886;2024-01-06T17:49:51;9.60;;;5.00;;
34072;SDS011;20346;52.702;16.886;2024-01-06T17:52:37;13.40;;;5.40;;
34072;SDS011;20346;52.702;16.886;2024-01-06T17:55:23;9.50;;;6.30;;
34072;SDS011;20346;52.702;16.886;2024-01-06T17:58:12;8.40;;;5.30;;
34072;SDS011;20346;52.702;16.886;2024-01-06T18:03:44;7.70;;;5.20;;
34072;SDS011;20346;52.702;16.886;2024-01-06T18:06:30;10.90;;;5.60;;
34072;SDS011;20346;52.702;16.886;2024-01-06T18:09:16;10.90;;;5.90;;
34072;SDS011;20346;52.702;16.886;2024-01-06T18:12:05;13.80;;;5.70;;
34072;SDS011;20346;52.702;16.886;2024-01-06T18:14:52;11.40;;;5.50;;
34072;SDS011;20346;52.702;16.886;2024-01-06T18:17:38;8.60;;;5.00;;
34072;SDS011;20346;52.702;16.886;2024-01-06T18:20:24;11.30;;;5.70;;
34072;SDS011;20346;52.702;16.886;2024-01-06T18:23:11;10.50;;;5.60;;
34072;SDS011;20346;52.702;16.886;2024-01-06T18:25:57;12.50;;;5.30;;
34072;SDS011;20346;52.702;16.886;2024-01-06T18:28:43;11.00;;;5.60;;